Ever Liberal — 2HDG2 — position and weather

sailwx.info

Track history (hours):
 
Tides and Currents Weather Stations Pressure Air Temp Water Temp Dewpoint Dewpoint Depression Visibility Wind Speed Wind Dir Waves Ship Positions

Ever Liberal

Last reported at 2018-Jun-20 18:00 UTC. Time now 2018-Jun-20 20:46 UTC.
Position N 47°42' W 170°18'.

Length 334 m; draft 12.8 m.

Type: Ship (hazmat cat D). MMSI: 235102678.

Wind from 300 at 13 knots

Barometer 1020.6 mb
Air temperature 9.0 ° C
Visibility: greater than 10.8 NM
Dewpoint 4.5 ° C
Water temperature 7.0 ° C

Date/timePositionNaut miles runAvg speedWind from/ knotsBaromVisibWave heightAir tempDewpointWater temp
2018-Jun-20 18:00N 47°42' W 170°18'47920.0 300 / 131020.610.8 9.0 4.5 7.0
2018-Jun-19 18:00N 48°06' E 177°48'23819.8 300 / 141022.7 2.2 5.0 3.8 7.0
2018-Jun-19 06:00N 47°48' E 171°54'11819.6 310 / 91022.710.8 8.0 3.3 6.0
2018-Jun-19 00:00N 47°36' E 169°00'11519.2 320 / 121021.710.8 5.0 2.5 6.0
2018-Jun-18 18:00N 47°18' E 166°12'24020.0 300 / 91021.710.8 3.0 3.0 6.0
2018-Jun-18 06:00N 46°24' E 160°30'   280 / 101021.6 6.0 0.9 6.0
2018-Jun-14 00:02N 35°00' E 128°60'112.2
2018-Jun-13 23:58N 35°00' E 129°01'6 9.4
2018-Jun-13 23:17N 35°04' E 129°07'2 8.5
2018-Jun-13 23:00N 35°06' E 129°05'1 1.3
2018-Jun-13 22:28N 35°06' E 129°04'0 0.0
2018-Jun-13 21:58N 35°06' E 129°04'0 0.0
2018-Jun-13 21:28N 35°06' E 129°04'0 0.0
2018-Jun-13 20:58N 35°06' E 129°04'0 0.0
2018-Jun-13 20:28N 35°06' E 129°04'0 0.0
2018-Jun-13 19:58N 35°06' E 129°04'0 0.0
2018-Jun-13 19:28N 35°06' E 129°04'0 0.0
2018-Jun-13 18:58N 35°06' E 129°04'0 0.0
2018-Jun-13 18:28N 35°06' E 129°04'0 0.0
2018-Jun-13 17:58N 35°06' E 129°04'0 0.0
2018-Jun-13 17:28N 35°06' E 129°04'0 0.0
2018-Jun-13 16:58N 35°06' E 129°04'0 0.0
2018-Jun-13 16:28N 35°06' E 129°04'0 0.0
2018-Jun-13 15:58N 35°06' E 129°04'0 0.0
2018-Jun-13 15:28N 35°06' E 129°04'0 0.0
2018-Jun-13 14:58N 35°06' E 129°04'0 0.0
2018-Jun-13 14:28N 35°06' E 129°04'0 0.0
2018-Jun-13 13:58N 35°06' E 129°04'0 0.0
2018-Jun-13 13:28N 35°06' E 129°04'0 0.0
2018-Jun-13 12:58N 35°06' E 129°04'0 0.0
2018-Jun-13 12:28N 35°06' E 129°04'0 0.0
2018-Jun-13 11:58N 35°06' E 129°04'0 0.0
2018-Jun-13 11:28N 35°06' E 129°04'0 0.0
2018-Jun-13 10:58N 35°06' E 129°04'0 0.0
2018-Jun-13 10:28N 35°06' E 129°04'0 0.0
2018-Jun-13 09:58N 35°06' E 129°04'0 0.0
2018-Jun-13 09:28N 35°06' E 129°04'0 0.0
2018-Jun-13 08:58N 35°06' E 129°04'0 0.0
2018-Jun-13 08:28N 35°06' E 129°04'0 0.0
2018-Jun-13 07:58N 35°06' E 129°04'0 0.0
2018-Jun-13 07:28N 35°06' E 129°04'0 0.0
2018-Jun-13 06:58N 35°06' E 129°04'0 0.1
2018-Jun-13 06:30N 35°06' E 129°04'2 4.1
2018-Jun-13 06:00N 35°05' E 129°06'4 7.6
2018-Jun-13 05:30N 35°02' E 129°10'713.0
2018-Jun-13 04:57N 34°55' E 129°09'28517.8
2018-Jun-12 12:58N 31°43' E 124°56'1018.9
2018-Jun-12 12:27N 31°38' E 124°47'152 5.5
2018-Jun-11 08:36N 30°36' E 122°05'1 8.4
2018-Jun-11 08:26N 30°36' E 122°06'715.3
2018-Jun-11 07:58N 30°34' E 122°14'  
Track history (hours):
 
Tides and Currents Weather Stations Pressure Air Temp Water Temp Dewpoint Dewpoint Depression Visibility Wind Speed Wind Dir Waves Ship Positions

Ever Liberal

Last reported at 2018-Jun-20 18:00 UTC. Time now 2018-Jun-20 20:46 UTC.
Position N 47°42' W 170°18'.

Length 334 m; draft 12.8 m.

Type: Ship (hazmat cat D). MMSI: 235102678.

Wind from 300 at 13 knots

Barometer 1020.6 mb
Air temperature 9.0 ° C
Visibility: greater than 10.8 NM
Dewpoint 4.5 ° C
Water temperature 7.0 ° C

Date/timePositionNaut miles runAvg speedWind from/ knotsBaromVisibWave heightAir tempDewpointWater temp
2018-Jun-20 18:00N 47°42' W 170°18'47920.0 300 / 131020.610.8 9.0 4.5 7.0
2018-Jun-19 18:00N 48°06' E 177°48'23819.8 300 / 141022.7 2.2 5.0 3.8 7.0
2018-Jun-19 06:00N 47°48' E 171°54'11819.6 310 / 91022.710.8 8.0 3.3 6.0
2018-Jun-19 00:00N 47°36' E 169°00'11519.2 320 / 121021.710.8 5.0 2.5 6.0
2018-Jun-18 18:00N 47°18' E 166°12'24020.0 300 / 91021.710.8 3.0 3.0 6.0
2018-Jun-18 06:00N 46°24' E 160°30'   280 / 101021.6 6.0 0.9 6.0
2018-Jun-14 00:02N 35°00' E 128°60'112.2
2018-Jun-13 23:58N 35°00' E 129°01'6 9.4
2018-Jun-13 23:17N 35°04' E 129°07'2 8.5
2018-Jun-13 23:00N 35°06' E 129°05'1 1.3
2018-Jun-13 22:28N 35°06' E 129°04'0 0.0
2018-Jun-13 21:58N 35°06' E 129°04'0 0.0
2018-Jun-13 21:28N 35°06' E 129°04'0 0.0
2018-Jun-13 20:58N 35°06' E 129°04'0 0.0
2018-Jun-13 20:28N 35°06' E 129°04'0 0.0
2018-Jun-13 19:58N 35°06' E 129°04'0 0.0
2018-Jun-13 19:28N 35°06' E 129°04'0 0.0
2018-Jun-13 18:58N 35°06' E 129°04'0 0.0
2018-Jun-13 18:28N 35°06' E 129°04'0 0.0
2018-Jun-13 17:58N 35°06' E 129°04'0 0.0
2018-Jun-13 17:28N 35°06' E 129°04'0 0.0
2018-Jun-13 16:58N 35°06' E 129°04'0 0.0
2018-Jun-13 16:28N 35°06' E 129°04'0 0.0
2018-Jun-13 15:58N 35°06' E 129°04'0 0.0
2018-Jun-13 15:28N 35°06' E 129°04'0 0.0
2018-Jun-13 14:58N 35°06' E 129°04'0 0.0
2018-Jun-13 14:28N 35°06' E 129°04'0 0.0
2018-Jun-13 13:58N 35°06' E 129°04'0 0.0
2018-Jun-13 13:28N 35°06' E 129°04'0 0.0
2018-Jun-13 12:58N 35°06' E 129°04'0 0.0
2018-Jun-13 12:28N 35°06' E 129°04'0 0.0
2018-Jun-13 11:58N 35°06' E 129°04'0 0.0
2018-Jun-13 11:28N 35°06' E 129°04'0 0.0
2018-Jun-13 10:58N 35°06' E 129°04'0 0.0
2018-Jun-13 10:28N 35°06' E 129°04'0 0.0
2018-Jun-13 09:58N 35°06' E 129°04'0 0.0
2018-Jun-13 09:28N 35°06' E 129°04'0 0.0
2018-Jun-13 08:58N 35°06' E 129°04'0 0.0
2018-Jun-13 08:28N 35°06' E 129°04'0 0.0
2018-Jun-13 07:58N 35°06' E 129°04'0 0.0
2018-Jun-13 07:28N 35°06' E 129°04'0 0.0
2018-Jun-13 06:58N 35°06' E 129°04'0 0.1
2018-Jun-13 06:30N 35°06' E 129°04'2 4.1
2018-Jun-13 06:00N 35°05' E 129°06'4 7.6
2018-Jun-13 05:30N 35°02' E 129°10'713.0
2018-Jun-13 04:57N 34°55' E 129°09'28517.8
2018-Jun-12 12:58N 31°43' E 124°56'1018.9
2018-Jun-12 12:27N 31°38' E 124°47'152 5.5
2018-Jun-11 08:36N 30°36' E 122°05'1 8.4
2018-Jun-11 08:26N 30°36' E 122°06'715.3
2018-Jun-11 07:58N 30°34' E 122°14'  

Dump ship's entire track history